Time;durP1;ratioP1;P1;durP2;ratioP2;P2;SDS_P1;SDS_P2;PMS_P1;PMS_P2;Temp;Humidity;BMP_temperature;BMP_pressure;BME280_temperature;BME280_humidity;BME280_pressure;Samples;Min_cycle;Max_cycle;Signal;HPM_P1;HPM_P2
2021/05/07 00:01:50;;;;;;;13.63;3.20;;;3.80;99.90;;;;;;5210904;28;20206;-72
2021/05/07 00:04:22;;;;;;;12.37;3.37;;;3.80;99.90;;;;;;5211183;28;20700;-72
2021/05/07 00:06:53;;;;;;;11.80;3.63;;;3.80;99.90;;;;;;5210905;28;20572;-71
2021/05/07 00:09:27;;;;;;;5.90;2.87;;;3.80;99.90;;;;;;5214036;28;20210;-73
2021/05/07 00:11:59;;;;;;;8.17;3.40;;;3.70;99.90;;;;;;5211518;28;20202;-75
2021/05/07 00:14:30;;;;;;;11.40;3.27;;;3.80;99.90;;;;;;5211059;28;20206;-72
2021/05/07 00:17:02;;;;;;;11.07;3.90;;;3.70;99.90;;;;;;5211366;28;20329;-75
2021/05/07 00:19:34;;;;;;;9.27;3.63;;;3.70;99.90;;;;;;5210286;28;20202;-76
2021/05/07 00:22:06;;;;;;;10.50;3.70;;;3.70;99.90;;;;;;5211814;28;20283;-77
2021/05/07 00:24:37;;;;;;;9.20;3.50;;;3.70;99.90;;;;;;5211505;28;20202;-73
2021/05/07 00:27:08;;;;;;;10.23;3.27;;;3.70;99.90;;;;;;5211177;28;20208;-75
2021/05/07 00:29:40;;;;;;;12.67;3.80;;;3.80;99.90;;;;;;5210542;28;20210;-75
2021/05/07 00:32:11;;;;;;;10.57;3.80;;;3.80;99.90;;;;;;5210899;28;20236;-75
2021/05/07 00:34:43;;;;;;;11.17;3.40;;;3.80;99.90;;;;;;5210873;28;20233;-74
2021/05/07 00:37:14;;;;;;;11.37;3.47;;;3.80;99.90;;;;;;5211234;28;20234;-75
2021/05/07 00:39:46;;;;;;;12.33;3.60;;;3.90;99.90;;;;;;5210540;28;20238;-75
2021/05/07 00:42:18;;;;;;;9.80;3.03;;;3.90;99.90;;;;;;5211124;28;20301;-74
2021/05/07 00:44:50;;;;;;;9.23;3.60;;;3.90;99.90;;;;;;5226222;28;20619;-73
2021/05/07 00:47:22;;;;;;;11.23;3.30;;;3.90;99.90;;;;;;5209916;28;20675;-76
2021/05/07 00:49:54;;;;;;;12.43;3.80;;;3.90;99.90;;;;;;5210614;28;20249;-73
2021/05/07 00:52:26;;;;;;;9.77;3.60;;;3.90;99.90;;;;;;5209932;28;20283;-74
2021/05/07 00:54:57;;;;;;;9.17;3.00;;;3.90;99.90;;;;;;5209046;28;20260;-74
2021/05/07 00:57:33;;;;;;;10.57;3.40;;;4.00;99.90;;;;;;5209056;28;20229;-74
2021/05/07 01:00:06;;;;;;;10.53;3.20;;;3.90;99.90;;;;;;5218009;28;20202;-75
2021/05/07 01:02:38;;;;;;;9.07;3.30;;;3.90;99.90;;;;;;5210220;28;20225;-74
2021/05/07 01:05:10;;;;;;;8.27;3.30;;;3.90;99.90;;;;;;5210620;28;20289;-74
2021/05/07 01:07:42;;;;;;;9.50;2.80;;;3.90;99.90;;;;;;5210953;28;20209;-74
2021/05/07 01:10:14;;;;;;;10.73;3.77;;;4.00;99.90;;;;;;5212301;28;20206;-75
2021/05/07 01:12:46;;;;;;;9.13;3.43;;;3.90;99.90;;;;;;5210288;28;20210;-75
2021/05/07 01:15:24;;;;;;;11.23;3.07;;;3.90;99.90;;;;;;5210492;28;20209;-74
2021/05/07 01:17:57;;;;;;;8.63;3.20;;;3.90;99.90;;;;;;5226313;28;20291;-74
2021/05/07 01:20:32;;;;;;;10.50;3.67;;;3.90;99.90;;;;;;5210534;28;20221;-77
2021/05/07 01:23:09;;;;;;;9.20;3.67;;;3.90;99.90;;;;;;5210133;28;20206;-76
2021/05/07 01:25:43;;;;;;;12.23;3.30;;;3.90;99.90;;;;;;5225416;28;20206;-74
2021/05/07 01:28:14;;;;;;;14.00;4.33;;;3.90;99.90;;;;;;5209178;28;20206;-75
2021/05/07 01:30:48;;;;;;;8.13;3.33;;;3.90;99.90;;;;;;5226020;28;20630;-75
2021/05/07 01:33:20;;;;;;;8.07;2.80;;;3.90;99.90;;;;;;5210848;28;20669;-76
2021/05/07 01:35:53;;;;;;;9.43;3.20;;;3.90;99.90;;;;;;5210160;28;20234;-74
2021/05/07 01:38:24;;;;;;;11.90;3.20;;;3.80;99.90;;;;;;5210170;28;20208;-76
2021/05/07 01:40:57;;;;;;;13.00;3.30;;;3.80;99.90;;;;;;5225853;28;20210;-76
2021/05/07 01:43:30;;;;;;;10.60;3.50;;;3.80;99.90;;;;;;5209634;28;20206;-73
2021/05/07 01:46:01;;;;;;;12.80;4.20;;;3.80;99.90;;;;;;5209154;28;20300;-73
2021/05/07 01:48:33;;;;;;;12.00;3.20;;;3.80;99.90;;;;;;5224000;28;20207;-74
2021/05/07 01:51:08;;;;;;;8.13;2.97;;;3.80;99.90;;;;;;5208372;28;20296;-76
2021/05/07 01:53:39;;;;;;;8.97;3.33;;;3.80;99.90;;;;;;5208551;28;20225;-74
2021/05/07 01:56:11;;;;;;;11.20;3.57;;;3.70;99.90;;;;;;5208530;28;20249;-75
2021/05/07 01:58:43;;;;;;;6.97;3.27;;;3.70;99.90;;;;;;5208702;28;20209;-74
2021/05/07 02:01:14;;;;;;;6.03;2.90;;;3.70;99.90;;;;;;5209782;28;20212;-75
2021/05/07 02:03:46;;;;;;;9.27;3.80;;;3.70;99.90;;;;;;5211719;28;20206;-76
2021/05/07 02:06:17;;;;;;;9.90;3.57;;;3.70;99.90;;;;;;5210025;28;20214;-76
2021/05/07 02:08:49;;;;;;;13.93;4.07;;;3.70;99.90;;;;;;5211026;28;20566;-74
2021/05/07 02:11:20;;;;;;;10.60;3.20;;;3.70;99.90;;;;;;5210470;28;20202;-76
2021/05/07 02:13:52;;;;;;;7.73;3.53;;;3.70;99.90;;;;;;5193579;28;20553;-73
2021/05/07 02:16:23;;;;;;;10.27;3.40;;;3.70;99.90;;;;;;5192197;28;20238;-75
2021/05/07 02:18:54;;;;;;;6.77;3.43;;;3.70;99.90;;;;;;5207238;28;20213;-76
2021/05/07 02:21:26;;;;;;;9.07;3.60;;;3.70;99.90;;;;;;5194755;28;20302;-75
2021/05/07 02:24:01;;;;;;;6.67;3.10;;;3.70;99.90;;;;;;5189257;28;20241;-74
2021/05/07 02:26:32;;;;;;;8.00;2.90;;;3.70;99.90;;;;;;5190153;28;20206;-74
2021/05/07 02:29:04;;;;;;;10.40;2.97;;;3.70;99.90;;;;;;5190683;28;20299;-75
2021/05/07 02:31:35;;;;;;;7.03;3.40;;;3.70;99.90;;;;;;5191192;28;20199;-75
2021/05/07 02:34:07;;;;;;;8.13;3.70;;;3.70;99.90;;;;;;5193256;28;20218;-74
2021/05/07 02:36:39;;;;;;;8.03;3.40;;;3.70;99.90;;;;;;5192940;28;20226;-74
2021/05/07 02:39:11;;;;;;;10.07;3.50;;;3.70;99.90;;;;;;5193614;28;20209;-75
2021/05/07 02:41:43;;;;;;;13.47;3.40;;;3.70;99.90;;;;;;5191935;28;20215;-75
2021/05/07 02:44:15;;;;;;;10.70;3.70;;;3.70;99.90;;;;;;5192083;28;20207;-74
2021/05/07 02:46:46;;;;;;;9.87;3.93;;;3.70;99.90;;;;;;5173233;28;20274;-74
2021/05/07 02:49:18;;;;;;;8.57;3.40;;;3.70;99.90;;;;;;5188853;28;20633;-75
2021/05/07 02:51:50;;;;;;;11.07;3.30;;;3.70;99.90;;;;;;5189719;28;20234;-73
2021/05/07 02:54:22;;;;;;;9.87;3.33;;;3.60;99.90;;;;;;5190002;28;20779;-73
2021/05/07 02:56:53;;;;;;;11.93;3.57;;;3.70;99.90;;;;;;5190135;28;20230;-74
2021/05/07 02:59:25;;;;;;;9.30;3.53;;;3.60;99.90;;;;;;5191981;28;20210;-74
2021/05/07 03:01:56;;;;;;;13.23;3.40;;;3.60;99.90;;;;;;5193274;28;20298;-75
2021/05/07 03:04:28;;;;;;;12.07;3.83;;;3.50;99.90;;;;;;5193119;28;20225;-77
2021/05/07 03:06:59;;;;;;;12.87;3.77;;;3.50;99.90;;;;;;5195382;28;20207;-75
2021/05/07 03:09:31;;;;;;;9.47;3.93;;;3.50;99.90;;;;;;5199705;28;20211;-75
2021/05/07 03:12:03;;;;;;;8.00;3.53;;;3.50;99.90;;;;;;5195801;28;20230;-74
2021/05/07 03:14:34;;;;;;;6.93;3.30;;;3.50;99.90;;;;;;5191515;28;20206;-70
2021/05/07 03:17:05;;;;;;;11.00;3.80;;;3.40;99.90;;;;;;5187019;28;20590;-69
2021/05/07 03:19:37;;;;;;;12.93;4.00;;;3.50;99.90;;;;;;5188247;28;20207;-70
2021/05/07 03:22:08;;;;;;;8.73;3.37;;;3.40;99.90;;;;;;5187279;28;20211;-71
2021/05/07 03:24:40;;;;;;;7.73;3.87;;;3.40;99.90;;;;;;5187554;28;20238;-71
2021/05/07 03:27:11;;;;;;;8.17;3.70;;;3.40;99.90;;;;;;5187996;28;20206;-71
2021/05/07 03:29:43;;;;;;;10.03;4.33;;;3.50;99.90;;;;;;5187855;28;20579;-70
2021/05/07 03:32:14;;;;;;;12.57;3.97;;;3.50;99.90;;;;;;5189933;28;20658;-70
2021/05/07 03:34:49;;;;;;;7.00;3.77;;;3.50;99.90;;;;;;5192657;28;20583;-70
2021/05/07 03:37:20;;;;;;;6.70;3.57;;;3.60;99.90;;;;;;5192081;28;20269;-70
2021/05/07 03:39:52;;;;;;;9.33;3.80;;;3.60;99.90;;;;;;5192227;28;20605;-69
2021/05/07 03:42:23;;;;;;;13.00;4.13;;;3.60;99.90;;;;;;5191997;28;20286;-70
2021/05/07 03:44:56;;;;;;;12.97;3.90;;;3.70;99.90;;;;;;5192771;28;20209;-69
2021/05/07 03:47:27;;;;;;;7.97;4.03;;;3.80;99.90;;;;;;5191831;28;20211;-70
2021/05/07 03:49:59;;;;;;;8.43;3.60;;;3.90;99.90;;;;;;5191529;28;20285;-70
2021/05/07 03:52:30;;;;;;;7.37;3.10;;;3.90;99.90;;;;;;5191693;28;20229;-71
2021/05/07 03:55:04;;;;;;;9.40;3.40;;;4.00;99.90;;;;;;5191127;28;20321;-69
2021/05/07 03:57:35;;;;;;;6.90;3.47;;;4.10;99.90;;;;;;5192216;28;20273;-71
2021/05/07 04:00:11;;;;;;;8.30;3.70;;;4.20;99.90;;;;;;5192614;28;20695;-70
2021/05/07 04:02:44;;;;;;;9.47;3.60;;;4.20;99.90;;;;;;5193239;28;20266;-70
2021/05/07 04:05:16;;;;;;;12.13;4.27;;;4.30;99.90;;;;;;5192478;28;20207;-70
2021/05/07 04:07:55;;;;;;;10.83;3.83;;;4.30;99.90;;;;;;5190948;28;20203;-74
2021/05/07 04:10:30;;;;;;;7.23;3.80;;;4.40;99.90;;;;;;5190618;28;20661;-75
2021/05/07 04:15:32;;;;;;;13.70;3.97;;;4.60;99.90;;;;;;5190549;28;20199;-72
2021/05/07 04:18:04;;;;;;;9.10;3.83;;;4.60;99.90;;;;;;5206186;28;20206;-74
2021/05/07 04:20:35;;;;;;;6.07;2.87;;;4.70;99.90;;;;;;5191441;28;20612;-73
2021/05/07 04:23:07;;;;;;;10.07;3.70;;;4.80;99.90;;;;;;5190155;28;20253;-75
2021/05/07 04:25:41;;;;;;;8.67;3.43;;;4.90;99.90;;;;;;5189884;28;20203;-75
2021/05/07 04:28:13;;;;;;;13.90;4.50;;;5.00;99.90;;;;;;5190196;28;20221;-70
2021/05/07 04:30:45;;;;;;;12.97;3.93;;;5.10;99.90;;;;;;5190228;28;20260;-74
2021/05/07 04:33:17;;;;;;;10.63;4.43;;;5.20;99.90;;;;;;5190551;28;20720;-76
2021/05/07 04:35:49;;;;;;;9.27;3.63;;;5.30;99.90;;;;;;5190191;28;20266;-74
2021/05/07 04:38:20;;;;;;;12.40;3.40;;;5.40;99.90;;;;;;5190028;28;20688;-71
2021/05/07 04:40:52;;;;;;;12.23;4.00;;;5.60;99.90;;;;;;5204051;28;20199;-73
2021/05/07 04:43:23;;;;;;;13.70;3.47;;;5.70;99.90;;;;;;5188654;28;20232;-71
2021/05/07 04:45:55;;;;;;;5.77;2.93;;;5.80;99.90;;;;;;5189824;28;20334;-73
2021/05/07 04:48:27;;;;;;;10.00;2.73;;;5.90;99.90;;;;;;5187371;28;20206;-72
2021/05/07 04:50:59;;;;;;;7.43;2.87;;;6.00;99.90;;;;;;5189656;28;20302;-72
2021/05/07 04:53:30;;;;;;;9.67;2.90;;;6.10;99.90;;;;;;5188586;28;20242;-75
2021/05/07 04:56:02;;;;;;;9.90;2.60;;;6.20;99.90;;;;;;5189979;28;20238;-70
2021/05/07 04:58:34;;;;;;;9.50;2.93;;;6.30;99.90;;;;;;5191073;28;20209;-71
2021/05/07 05:01:05;;;;;;;10.43;2.83;;;6.40;99.90;;;;;;5188677;28;20708;-73
2021/05/07 05:03:37;;;;;;;8.27;2.80;;;6.60;99.90;;;;;;5188572;28;20211;-76
2021/05/07 05:06:08;;;;;;;6.97;2.70;;;6.70;99.90;;;;;;5188838;28;20198;-73
2021/05/07 05:08:40;;;;;;;9.33;3.10;;;6.70;99.90;;;;;;5188470;28;20191;-73
2021/05/07 05:11:12;;;;;;;11.07;3.00;;;6.80;99.90;;;;;;5188684;28;20201;-70
2021/05/07 05:13:43;;;;;;;8.83;3.00;;;6.80;99.90;;;;;;5188324;28;20298;-72
2021/05/07 05:16:15;;;;;;;10.20;2.83;;;6.80;99.90;;;;;;5188448;28;20239;-70
2021/05/07 05:18:46;;;;;;;11.27;2.63;;;6.90;99.90;;;;;;5188370;28;20206;-71
2021/05/07 05:21:18;;;;;;;10.63;2.60;;;6.90;99.90;;;;;;5188065;28;20362;-72
2021/05/07 05:23:50;;;;;;;8.83;2.73;;;6.90;99.90;;;;;;5188427;28;20205;-76
2021/05/07 05:26:21;;;;;;;8.93;2.90;;;7.00;99.90;;;;;;5189244;28;20201;-71
2021/05/07 05:28:54;;;;;;;11.20;3.23;;;7.00;99.90;;;;;;5188287;28;20293;-71
2021/05/07 05:31:26;;;;;;;8.33;2.70;;;7.10;99.90;;;;;;5187248;28;20203;-71
2021/05/07 05:33:57;;;;;;;10.00;2.60;;;7.10;99.90;;;;;;5188606;28;20206;-71
2021/05/07 05:36:29;;;;;;;11.10;2.80;;;7.20;99.90;;;;;;5200987;28;20226;-71
2021/05/07 05:39:00;;;;;;;10.25;3.72;;;7.30;99.90;;;;;;5207839;28;20427;-72
2021/05/07 05:41:32;;;;;;;8.27;3.13;;;7.30;99.90;;;;;;5209142;28;20206;-70
2021/05/07 05:44:04;;;;;;;10.53;3.53;;;7.30;99.90;;;;;;5209644;28;20207;-70
2021/05/07 05:46:37;;;;;;;11.67;2.80;;;7.40;99.90;;;;;;5208819;28;20209;-70
2021/05/07 05:49:08;;;;;;;10.70;2.30;;;7.40;99.90;;;;;;5208516;28;20202;-70
2021/05/07 05:51:40;;;;;;;6.77;2.40;;;7.40;99.90;;;;;;5208463;28;20579;-69
2021/05/07 05:54:11;;;;;;;5.73;2.83;;;7.50;99.90;;;;;;5207078;28;20236;-70
2021/05/07 05:56:43;;;;;;;9.50;2.43;;;7.50;99.90;;;;;;5208133;28;20230;-72
2021/05/07 05:59:14;;;;;;;7.70;2.73;;;7.60;99.90;;;;;;5208210;28;20669;-71
2021/05/07 06:01:46;;;;;;;5.80;2.27;;;7.70;99.90;;;;;;5206545;28;20293;-71
2021/05/07 06:04:17;;;;;;;8.60;2.40;;;7.80;99.90;;;;;;5223375;28;20218;-69
2021/05/07 06:06:49;;;;;;;5.90;1.90;;;8.30;99.90;;;;;;5206511;28;20206;-69
2021/05/07 06:09:20;;;;;;;6.67;2.00;;;9.70;99.90;;;;;;5186293;28;20343;-70
2021/05/07 06:11:52;;;;;;;6.33;2.50;;;11.90;99.90;;;;;;5186539;28;20673;-71
2021/05/07 06:14:23;;;;;;;8.70;2.37;;;14.50;99.90;;;;;;5180147;28;20779;-71
2021/05/07 06:17:13;;;;;;;7.57;2.47;;;16.60;99.90;;;;;;5183039;28;20231;-71
2021/05/07 06:19:45;;;;;;;8.15;2.13;;;18.30;99.90;;;;;;5186873;28;20642;-68
2021/05/07 06:22:16;;;;;;;8.40;2.67;;;19.30;96.30;;;;;;5186028;28;20211;-70
2021/05/07 06:24:48;;;;;;;8.00;3.08;;;19.70;93.00;;;;;;5186118;28;20210;-68
2021/05/07 06:27:20;;;;;;;10.45;2.40;;;19.70;91.30;;;;;;5185852;28;20285;-69
2021/05/07 06:29:51;;;;;;;7.65;2.10;;;19.60;90.40;;;;;;5186995;28;20195;-71
2021/05/07 06:32:23;;;;;;;6.93;2.55;;;20.00;87.20;;;;;;5186618;28;20195;-70
2021/05/07 06:34:56;;;;;;;6.25;2.40;;;20.60;84.50;;;;;;5186968;28;20642;-70
2021/05/07 06:37:27;;;;;;;5.03;2.30;;;21.20;81.30;;;;;;5181873;28;20226;-69
2021/05/07 06:39:59;;;;;;;7.80;2.30;;;21.40;79.60;;;;;;5182019;28;20206;-71
2021/05/07 06:42:34;;;;;;;7.15;2.35;;;21.40;78.10;;;;;;5180821;28;20261;-70
2021/05/07 06:45:10;;;;;;;8.32;2.40;;;21.10;75.70;;;;;;5182465;28;20210;-71
2021/05/07 06:47:42;;;;;;;5.50;2.30;;;21.10;76.30;;;;;;5185641;28;20199;-71
2021/05/07 06:50:15;;;;;;;7.63;2.40;;;21.30;75.30;;;;;;5184755;28;20210;-70
2021/05/07 06:52:47;;;;;;;7.00;2.78;;;21.90;72.40;;;;;;5183707;28;20293;-71
2021/05/07 06:55:19;;;;;;;5.72;2.40;;;21.50;71.30;;;;;;5185626;28;20286;-71
2021/05/07 06:57:50;;;;;;;5.55;2.28;;;21.10;72.60;;;;;;5186234;28;20215;-72
2021/05/07 07:00:22;;;;;;;9.77;3.03;;;21.00;72.70;;;;;;5186284;28;20544;-72
2021/05/07 07:02:54;;;;;;;7.22;2.40;;;21.30;72.00;;;;;;5183377;28;20211;-71
2021/05/07 07:05:26;;;;;;;6.70;2.30;;;21.70;70.70;;;;;;5193373;28;20265;-70
2021/05/07 07:07:57;;;;;;;7.20;2.28;;;21.80;67.70;;;;;;5189972;28;20202;-75
2021/05/07 07:10:29;;;;;;;6.15;2.33;;;22.00;67.20;;;;;;5187528;28;20927;-71
2021/05/07 07:13:01;;;;;;;5.10;2.08;;;22.60;66.10;;;;;;5182265;28;20198;-71
2021/05/07 07:15:33;;;;;;;7.40;2.28;;;22.50;64.70;;;;;;5190558;28;20214;-70
2021/05/07 07:18:04;;;;;;;4.32;1.85;;;22.90;63.90;;;;;;5190347;28;20222;-72
2021/05/07 07:20:36;;;;;;;9.38;2.42;;;22.80;64.20;;;;;;5189609;28;20195;-73
2021/05/07 07:23:08;;;;;;;6.28;2.10;;;22.40;63.70;;;;;;5190229;28;20669;-70
2021/05/07 07:25:39;;;;;;;7.47;2.55;;;21.60;64.20;;;;;;5190031;28;20234;-76
2021/05/07 07:28:12;;;;;;;6.13;2.30;;;20.90;64.40;;;;;;5189720;28;20234;-73
2021/05/07 07:30:44;;;;;;;6.03;1.80;;;20.60;65.20;;;;;;5190795;28;20270;-73
2021/05/07 07:33:18;;;;;;;6.93;2.15;;;20.00;67.30;;;;;;5189893;28;20202;-68
2021/05/07 07:35:50;;;;;;;7.28;2.08;;;19.60;68.40;;;;;;5190207;28;20189;-67
2021/05/07 07:38:21;;;;;;;4.18;1.65;;;19.10;69.20;;;;;;5189627;28;20322;-68
2021/05/07 07:40:53;;;;;;;7.13;2.08;;;18.60;69.40;;;;;;5188014;28;20290;-70
2021/05/07 07:43:25;;;;;;;8.90;2.40;;;18.10;70.20;;;;;;5180064;28;20203;-70
2021/05/07 07:45:57;;;;;;;7.35;1.95;;;17.50;71.10;;;;;;5168131;28;20254;-68
2021/05/07 07:48:29;;;;;;;6.65;1.80;;;16.80;72.50;;;;;;5175891;28;20211;-76
2021/05/07 07:51:00;;;;;;;6.38;1.48;;;16.40;73.80;;;;;;5180267;28;20198;-75
2021/05/07 07:53:32;;;;;;;3.42;1.35;;;16.30;73.80;;;;;;5180562;28;20235;-73
2021/05/07 07:56:04;;;;;;;6.15;1.73;;;16.20;72.30;;;;;;5185460;28;20206;-74
2021/05/07 07:58:35;;;;;;;7.47;2.00;;;15.90;74.20;;;;;;5190742;28;20281;-71
2021/05/07 08:01:07;;;;;;;7.70;2.50;;;15.70;74.20;;;;;;5179713;28;20209;-81
2021/05/07 08:03:39;;;;;;;6.27;2.03;;;15.60;75.80;;;;;;5213256;28;20195;-83
2021/05/07 08:06:10;;;;;;;6.57;1.90;;;15.40;75.50;;;;;;5197070;28;20257;-72
2021/05/07 08:08:42;;;;;;;7.67;1.90;;;14.90;76.80;;;;;;5192564;28;20285;-76
2021/05/07 08:11:15;;;;;;;5.93;1.80;;;14.50;74.50;;;;;;5189571;28;20206;-67
2021/05/07 08:13:46;;;;;;;10.20;2.23;;;14.40;76.40;;;;;;5168584;28;20647;-75
2021/05/07 08:16:18;;;;;;;4.20;1.50;;;14.10;77.00;;;;;;5167990;28;20230;-71
2021/05/07 08:18:50;;;;;;;7.57;2.03;;;13.80;76.80;;;;;;5196306;28;20197;-72
2021/05/07 08:21:24;;;;;;;5.07;1.70;;;13.80;78.10;;;;;;5185545;28;20195;-73
2021/05/07 08:23:56;;;;;;;6.07;1.80;;;13.90;79.00;;;;;;5188577;28;20190;-73
2021/05/07 08:26:28;;;;;;;4.03;1.70;;;13.70;77.00;;;;;;5188744;28;20262;-74
2021/05/07 08:29:00;;;;;;;7.03;1.70;;;13.50;76.50;;;;;;5189268;28;20223;-71
2021/05/07 08:31:32;;;;;;;5.90;1.60;;;13.30;76.90;;;;;;5188290;28;20591;-68
2021/05/07 08:34:05;;;;;;;4.40;1.60;;;12.90;76.20;;;;;;5159846;28;20199;-69
2021/05/07 08:36:39;;;;;;;8.43;2.00;;;12.90;76.90;;;;;;5204360;28;20242;-70
2021/05/07 08:39:10;;;;;;;4.77;1.80;;;12.70;78.30;;;;;;5189201;28;20562;-76
2021/05/07 08:41:43;;;;;;;4.97;1.50;;;12.50;76.40;;;;;;5186447;28;20210;-70
2021/05/07 08:44:18;;;;;;;7.73;1.30;;;12.70;80.00;;;;;;5189109;28;20187;-69
2021/05/07 08:46:56;;;;;;;5.23;1.70;;;13.00;77.50;;;;;;5202923;28;20223;-70
2021/05/07 08:49:29;;;;;;;6.77;1.60;;;13.20;77.10;;;;;;5188456;28;20286;-74
2021/05/07 08:52:00;;;;;;;3.23;1.87;;;13.20;75.50;;;;;;5188864;28;20211;-79
2021/05/07 08:54:32;;;;;;;4.43;1.60;;;13.20;74.90;;;;;;5187059;28;20234;-77
2021/05/07 08:57:04;;;;;;;5.30;1.60;;;13.30;75.60;;;;;;5187850;28;20650;-73
2021/05/07 08:59:36;;;;;;;6.73;1.60;;;13.20;74.40;;;;;;5203344;28;20558;-73
2021/05/07 09:02:08;;;;;;;4.57;1.83;;;13.10;74.00;;;;;;5187853;28;20209;-67
2021/05/07 09:04:49;;;;;;;5.13;1.47;;;13.10;75.80;;;;;;5189010;28;20673;-73
2021/05/07 09:07:20;;;;;;;4.20;1.67;;;13.50;77.00;;;;;;5183859;28;20230;-67
2021/05/07 09:09:58;;;;;;;6.07;1.60;;;13.70;76.10;;;;;;5189916;28;20211;-69
2021/05/07 09:12:32;;;;;;;6.50;1.30;;;14.10;78.00;;;;;;5195234;28;20214;-70
2021/05/07 09:15:07;;;;;;;6.53;1.77;;;14.30;77.40;;;;;;5184872;28;20192;-72
2021/05/07 09:17:39;;;;;;;3.93;1.43;;;14.50;76.80;;;;;;5191353;28;20203;-70
2021/05/07 09:20:13;;;;;;;4.40;1.20;;;14.70;76.20;;;;;;5189255;28;20195;-69
2021/05/07 09:22:45;;;;;;;6.43;1.47;;;14.90;75.30;;;;;;5189238;28;20613;-70
2021/05/07 09:25:18;;;;;;;5.77;1.50;;;14.90;76.60;;;;;;5188731;28;20199;-70
2021/05/07 09:27:50;;;;;;;4.43;1.40;;;14.80;76.50;;;;;;5188767;28;20294;-68
2021/05/07 09:30:31;;;;;;;5.90;1.67;;;14.50;76.70;;;;;;5188838;28;20221;-71
2021/05/07 09:33:15;;;;;;;5.33;1.37;;;14.00;74.90;;;;;;5188407;28;20195;-70
2021/05/07 09:35:46;;;;;;;6.00;1.60;;;13.80;76.50;;;;;;5186060;28;20190;-69
2021/05/07 09:38:20;;;;;;;6.30;1.67;;;13.60;77.40;;;;;;5188135;28;20198;-68
2021/05/07 09:44:37;;;;;;;5.53;1.40;;;13.40;77.50;;;;;;5187856;28;20174;-68
2021/05/07 09:47:14;;;;;;;3.80;2.07;;;13.20;77.70;;;;;;5187681;28;20254;-70
2021/05/07 09:49:46;;;;;;;5.77;1.60;;;13.00;78.50;;;;;;5188912;28;20558;-70
2021/05/07 09:52:26;;;;;;;5.37;1.57;;;12.70;78.30;;;;;;5188482;28;20191;-73
2021/05/07 09:54:58;;;;;;;5.63;1.47;;;12.60;79.30;;;;;;5188291;28;20302;-70
2021/05/07 10:01:15;;;;;;;6.70;1.67;;;12.70;79.70;;;;;;5185830;28;20233;-67
2021/05/07 10:03:47;;;;;;;5.40;1.50;;;12.60;79.70;;;;;;5186619;28;20218;-67
2021/05/07 10:06:18;;;;;;;5.07;1.20;;;12.50;79.00;;;;;;5188222;28;20191;-69
2021/05/07 10:08:51;;;;;;;5.70;1.63;;;12.30;78.30;;;;;;5187185;28;20191;-68
2021/05/07 10:11:23;;;;;;;6.57;1.83;;;12.20;79.70;;;;;;5188011;28;20187;-68
2021/05/07 10:13:56;;;;;;;4.53;1.60;;;12.40;80.80;;;;;;5170661;28;20202;-67
2021/05/07 10:16:30;;;;;;;4.37;1.50;;;12.60;79.30;;;;;;5188328;28;20198;-70
2021/05/07 10:19:13;;;;;;;3.67;1.47;;;12.80;79.70;;;;;;5187983;28;20179;-68
2021/05/07 10:21:47;;;;;;;5.27;1.77;;;12.80;76.90;;;;;;5187642;28;20206;-68
2021/05/07 10:24:20;;;;;;;4.20;1.13;;;12.70;79.00;;;;;;5186117;28;20198;-69
2021/05/07 10:26:56;;;;;;;4.87;1.30;;;12.50;78.40;;;;;;5184705;28;20218;-68
2021/05/07 10:29:28;;;;;;;5.10;1.50;;;12.50;78.20;;;;;;5187698;28;20198;-69
2021/05/07 10:32:02;;;;;;;2.73;1.43;;;12.50;80.20;;;;;;5186421;28;20350;-68
2021/05/07 10:34:42;;;;;;;5.90;1.60;;;12.70;81.30;;;;;;5187439;28;20205;-68
2021/05/07 10:37:14;;;;;;;7.23;1.50;;;12.80;81.30;;;;;;5187499;28;20202;-73
2021/05/07 10:39:54;;;;;;;5.37;1.30;;;12.90;81.60;;;;;;5186701;28;20242;-78
2021/05/07 10:42:26;;;;;;;4.37;1.70;;;12.60;81.00;;;;;;5187128;28;20218;-69
2021/05/07 10:44:58;;;;;;;3.63;1.47;;;12.30;80.90;;;;;;5187687;28;20199;-75
2021/05/07 10:47:34;;;;;;;3.53;1.30;;;12.30;80.90;;;;;;5185476;28;20692;-74
2021/05/07 10:50:16;;;;;;;4.23;1.43;;;12.20;82.90;;;;;;5187530;28;20287;-75
2021/05/07 10:52:50;;;;;;;6.90;1.37;;;12.40;81.80;;;;;;5185457;28;20304;-73
2021/05/07 10:55:32;;;;;;;5.30;1.27;;;12.50;80.60;;;;;;5186274;28;20200;-72
2021/05/07 10:58:05;;;;;;;3.13;1.10;;;12.60;80.00;;;;;;5185005;28;20187;-71
2021/05/07 11:00:39;;;;;;;4.30;1.13;;;12.80;80.10;;;;;;5186770;28;20194;-71
2021/05/07 11:03:19;;;;;;;4.73;1.43;;;13.00;79.70;;;;;;5186632;28;20229;-70
2021/05/07 11:05:51;;;;;;;5.93;1.40;;;13.20;79.40;;;;;;5187187;28;20560;-68
2021/05/07 11:08:32;;;;;;;4.87;1.50;;;13.30;79.20;;;;;;5187080;28;20654;-75
2021/05/07 11:11:03;;;;;;;3.97;1.37;;;13.30;79.20;;;;;;5189161;28;20190;-70
2021/05/07 11:13:37;;;;;;;7.43;1.70;;;13.30;79.80;;;;;;5188158;28;20231;-72
2021/05/07 11:16:09;;;;;;;5.43;1.50;;;12.60;81.70;;;;;;5186869;28;20187;-74
2021/05/07 11:18:47;;;;;;;4.03;1.50;;;12.10;87.60;;;;;;5188493;28;20199;-69
2021/05/07 11:21:19;;;;;;;5.67;1.73;;;12.10;90.60;;;;;;5188715;28;20281;-72
2021/05/07 11:24:13;;;;;;;4.97;1.47;;;12.10;89.50;;;;;;5186730;28;20282;-70
2021/05/07 11:30:31;;;;;;;3.07;1.50;;;12.10;84.80;;;;;;5188213;28;20202;-71
2021/05/07 11:33:08;;;;;;;4.90;1.70;;;12.20;86.10;;;;;;5185840;28;20282;-73
2021/05/07 11:35:40;;;;;;;4.40;1.43;;;12.30;85.10;;;;;;5185527;28;20226;-70
2021/05/07 11:38:12;;;;;;;6.90;1.77;;;12.30;83.80;;;;;;5186379;28;20245;-70
2021/05/07 11:40:43;;;;;;;5.83;1.70;;;12.20;84.40;;;;;;5186193;28;20206;-77
2021/05/07 11:47:09;;;;;;;9.53;2.20;;;12.60;87.10;;;;;;5184687;28;20611;-73
2021/05/07 11:49:48;;;;;;;5.97;2.00;;;12.30;88.30;;;;;;5185750;28;20656;-75
2021/05/07 11:52:30;;;;;;;5.63;1.80;;;12.30;88.90;;;;;;5189088;28;20601;-73
2021/05/07 11:55:04;;;;;;;7.13;2.83;;;12.10;89.40;;;;;;5190945;28;20238;-75
2021/05/07 11:57:36;;;;;;;8.57;2.43;;;12.00;90.00;;;;;;5190731;28;20286;-73
2021/05/07 12:00:09;;;;;;;6.23;2.03;;;11.80;90.20;;;;;;5194423;28;20281;-66
2021/05/07 12:02:43;;;;;;;10.63;2.60;;;11.70;91.60;;;;;;5190325;28;20281;-67
2021/05/07 12:05:26;;;;;;;7.83;2.80;;;11.70;92.60;;;;;;5190110;28;20307;-68
2021/05/07 12:07:58;;;;;;;5.30;2.70;;;11.60;93.20;;;;;;5189546;28;20231;-67
2021/05/07 12:10:31;;;;;;;11.47;3.53;;;11.30;93.70;;;;;;5189263;28;20274;-70
2021/05/07 12:13:03;;;;;;;9.70;2.97;;;11.20;94.30;;;;;;5197274;28;20202;-74
2021/05/07 12:15:49;;;;;;;12.03;3.50;;;11.30;94.60;;;;;;5193795;28;20199;-73
2021/05/07 12:18:24;;;;;;;12.43;3.30;;;11.40;94.40;;;;;;5192063;28;20187;-76
2021/05/07 12:20:57;;;;;;;9.07;3.00;;;11.30;94.50;;;;;;5190108;28;20549;-68
2021/05/07 12:23:46;;;;;;;11.37;2.93;;;11.20;94.20;;;;;;5190168;28;20195;-72
2021/05/07 12:26:20;;;;;;;7.97;2.57;;;10.90;94.70;;;;;;5189354;28;20245;-70
2021/05/07 12:28:58;;;;;;;10.07;3.50;;;10.60;94.90;;;;;;5189275;28;20195;-68
2021/05/07 12:31:31;;;;;;;8.70;2.67;;;10.50;95.20;;;;;;5189835;28;20293;-73
2021/05/07 12:34:19;;;;;;;12.40;2.93;;;10.50;95.80;;;;;;5190046;28;20191;-73
2021/05/07 12:37:03;;;;;;;7.77;3.40;;;10.50;95.70;;;;;;5189587;28;20195;-67
2021/05/07 12:39:35;;;;;;;6.43;2.47;;;10.40;96.20;;;;;;5189160;28;20200;-69
2021/05/07 12:42:07;;;;;;;7.73;2.47;;;10.50;96.50;;;;;;5189107;28;20210;-68
2021/05/07 12:44:39;;;;;;;8.17;2.87;;;10.70;96.80;;;;;;5175231;28;20198;-65
2021/05/07 12:47:11;;;;;;;8.47;3.03;;;10.80;97.10;;;;;;5188617;28;20210;-65
2021/05/07 12:49:42;;;;;;;6.93;3.03;;;10.80;97.20;;;;;;5188451;28;20213;-67
2021/05/07 12:52:13;;;;;;;16.13;4.37;;;10.80;97.60;;;;;;5188623;28;20203;-71
2021/05/07 12:54:48;;;;;;;12.67;4.23;;;10.50;98.30;;;;;;5188868;28;20243;-67
2021/05/07 13:01:18;;;;;;;10.53;4.17;;;10.20;99.60;;;;;;5188371;28;20200;-68
2021/05/07 13:03:50;;;;;;;11.20;4.57;;;10.20;99.90;;;;;;5188440;28;20557;-69
2021/05/07 13:06:22;;;;;;;11.20;3.93;;;10.10;99.90;;;;;;5188499;28;20225;-66
2021/05/07 13:08:54;;;;;;;11.27;4.03;;;10.20;99.90;;;;;;5188497;28;20539;-66
2021/05/07 13:11:26;;;;;;;9.83;5.40;;;10.20;99.90;;;;;;5188695;28;20257;-71
2021/05/07 13:17:43;;;;;;;12.03;4.40;;;9.90;99.90;;;;;;5189714;28;20178;-71
2021/05/07 13:20:18;;;;;;;11.33;4.30;;;9.70;99.90;;;;;;5187514;28;20199;-72
2021/05/07 13:22:50;;;;;;;12.03;4.47;;;9.60;99.90;;;;;;5188410;28;20217;-69
2021/05/07 13:25:22;;;;;;;12.07;4.17;;;9.50;99.90;;;;;;5188617;28;20191;-67
2021/05/07 13:27:53;;;;;;;9.63;4.20;;;9.40;99.90;;;;;;5188526;28;20321;-68
2021/05/07 13:30:26;;;;;;;9.70;4.10;;;9.30;99.90;;;;;;5188396;28;20198;-69
2021/05/07 13:32:57;;;;;;;7.97;4.30;;;9.20;99.90;;;;;;5188901;28;20191;-70
2021/05/07 13:35:32;;;;;;;9.00;4.10;;;9.20;99.90;;;;;;5188942;28;20629;-69
2021/05/07 13:38:06;;;;;;;8.80;3.93;;;9.20;99.90;;;;;;5188451;28;20317;-67
2021/05/07 13:40:38;;;;;;;8.47;3.90;;;9.40;99.90;;;;;;5187819;28;20202;-71
2021/05/07 13:43:10;;;;;;;11.07;5.37;;;9.60;99.90;;;;;;5188128;28;20199;-72